createdAt,value
2023-02-08T00:00:16.082Z,-4.30
2023-02-08T00:02:49.196Z,-4.30
2023-02-08T00:05:22.317Z,-4.20
2023-02-08T00:07:55.427Z,-4.30
2023-02-08T00:10:29.003Z,-4.40
2023-02-08T00:13:04.594Z,-4.40
2023-02-08T00:15:43.017Z,-4.40
2023-02-08T00:18:16.319Z,-4.40
2023-02-08T00:20:49.792Z,-4.40
2023-02-08T00:23:23.091Z,-4.40
2023-02-08T00:25:56.089Z,-4.40
2023-02-08T00:28:30.581Z,-4.40
2023-02-08T00:31:04.266Z,-4.40
2023-02-08T00:33:37.667Z,-4.50
2023-02-08T00:36:13.196Z,-4.50
2023-02-08T00:38:46.294Z,-4.40
2023-02-08T00:41:19.344Z,-4.50
2023-02-08T00:43:53.724Z,-4.50
2023-02-08T00:46:26.844Z,-4.60
2023-02-08T00:48:59.980Z,-4.60
2023-02-08T00:51:32.999Z,-4.60
2023-02-08T00:54:06.036Z,-4.60
2023-02-08T00:56:39.072Z,-4.60
2023-02-08T00:59:14.488Z,-4.60
2023-02-08T01:01:47.604Z,-4.60
2023-02-08T01:04:20.642Z,-4.60
2023-02-08T01:06:53.873Z,-4.50
2023-02-08T01:09:26.993Z,-4.70
2023-02-08T01:12:00.036Z,-4.80
2023-02-08T01:14:34.395Z,-4.80
2023-02-08T01:17:07.946Z,-4.80
2023-02-08T01:19:42.522Z,-4.80
2023-02-08T01:22:15.741Z,-4.70
2023-02-08T01:24:48.865Z,-4.70
2023-02-08T01:27:21.852Z,-4.70
2023-02-08T01:29:56.268Z,-4.60
2023-02-08T01:32:29.309Z,-4.60
2023-02-08T01:35:02.340Z,-4.60
2023-02-08T01:37:35.405Z,-4.60
2023-02-08T01:40:09.853Z,-4.60
2023-02-08T01:42:42.958Z,-4.60
2023-02-08T01:45:35.456Z,-4.60
2023-02-08T01:48:14.385Z,-4.70
2023-02-08T01:50:55.222Z,-4.70
2023-02-08T01:53:30.576Z,-4.70
2023-02-08T01:56:09.331Z,-4.70
2023-02-08T01:58:46.937Z,-4.80
2023-02-08T02:01:21.389Z,-4.80
2023-02-08T02:03:54.844Z,-4.90
2023-02-08T02:06:32.632Z,-5.00
2023-02-08T02:09:19.314Z,-5.00
2023-02-08T02:11:54.696Z,-5.00
2023-02-08T02:14:28.272Z,-4.90
2023-02-08T02:17:02.862Z,-5.00
2023-02-08T02:19:46.183Z,-5.00
2023-02-08T02:22:55.299Z,-4.90
2023-02-08T02:25:53.800Z,-4.90
2023-02-08T02:28:58.177Z,-4.90
2023-02-08T02:31:54.409Z,-5.00
2023-02-08T02:34:39.620Z,-5.10
2023-02-08T02:37:31.526Z,-5.10
2023-02-08T02:40:12.922Z,-5.10
2023-02-08T02:43:19.755Z,-5.10
2023-02-08T02:46:01.401Z,-5.10
2023-02-08T02:48:43.634Z,-5.00
2023-02-08T02:51:20.350Z,-5.10
2023-02-08T02:54:00.617Z,-5.10
2023-02-08T02:56:38.646Z,-5.10
2023-02-08T02:59:13.872Z,-5.10
2023-02-08T03:01:48.629Z,-5.10
2023-02-08T03:04:52.856Z,-5.00
2023-02-08T03:07:50.343Z,-4.90
2023-02-08T03:10:42.295Z,-5.00
2023-02-08T03:13:27.796Z,-5.10
2023-02-08T03:16:15.853Z,-5.10
2023-02-08T03:19:07.494Z,-5.00
2023-02-08T03:21:49.681Z,-5.10
2023-02-08T03:24:29.741Z,-5.10
2023-02-08T03:27:08.226Z,-5.10
2023-02-08T03:29:50.308Z,-5.00
2023-02-08T03:32:29.312Z,-4.90
2023-02-08T03:35:07.698Z,-5.00
2023-02-08T03:37:47.787Z,-5.10
2023-02-08T03:40:25.570Z,-5.20
2023-02-08T03:43:04.815Z,-5.10
2023-02-08T03:45:42.015Z,-5.10
2023-02-08T03:48:17.024Z,-5.10
2023-02-08T03:50:54.090Z,-5.20
2023-02-08T03:53:29.637Z,-5.20
2023-02-08T03:56:10.117Z,-5.20
2023-02-08T03:58:49.027Z,-5.20
2023-02-08T04:01:30.479Z,-5.20
2023-02-08T04:04:04.101Z,-5.20
2023-02-08T04:06:37.253Z,-5.20
2023-02-08T04:09:11.975Z,-5.30
2023-02-08T04:11:44.987Z,-5.30
2023-02-08T04:14:18.244Z,-5.40
2023-02-08T04:16:51.700Z,-5.50
2023-02-08T04:19:24.771Z,-5.60
2023-02-08T04:21:57.834Z,-5.50
2023-02-08T04:24:32.328Z,-5.50
2023-02-08T04:27:06.140Z,-5.50
2023-02-08T04:29:39.294Z,-5.50
2023-02-08T04:32:13.396Z,-5.50
2023-02-08T04:34:46.467Z,-5.50
2023-02-08T04:37:19.497Z,-5.50
2023-02-08T04:39:53.915Z,-5.50
2023-02-08T04:42:27.182Z,-5.50
2023-02-08T04:45:00.184Z,-5.50
2023-02-08T04:47:33.259Z,-5.40
2023-02-08T04:50:07.273Z,-5.50
2023-02-08T04:52:40.348Z,-5.50
2023-02-08T04:55:14.765Z,-5.50
2023-02-08T04:57:47.939Z,-5.50
2023-02-08T05:00:21.192Z,-5.40
2023-02-08T05:02:55.107Z,-5.40
2023-02-08T05:05:28.837Z,-5.40
2023-02-08T05:08:03.727Z,-5.40
2023-02-08T05:10:38.289Z,-5.50
2023-02-08T05:13:12.543Z,-5.60
2023-02-08T05:15:45.678Z,-5.50
2023-02-08T05:18:18.806Z,-5.50
2023-02-08T05:20:59.039Z,-5.50
2023-02-08T05:23:33.286Z,-5.60
2023-02-08T05:26:10.441Z,-5.50
2023-02-08T05:28:43.821Z,-5.60
2023-02-08T05:31:21.556Z,-5.50
2023-02-08T05:33:55.102Z,-5.50
2023-02-08T05:36:28.251Z,-5.50
2023-02-08T05:39:01.303Z,-5.50
2023-02-08T05:41:35.937Z,-5.50
2023-02-08T05:44:09.060Z,-5.50
2023-02-08T05:46:42.171Z,-5.50
2023-02-08T05:49:15.702Z,-5.50
2023-02-08T05:51:50.258Z,-5.50
2023-02-08T05:54:23.736Z,-5.40
2023-02-08T05:56:58.104Z,-5.40
2023-02-08T05:59:31.145Z,-5.40
2023-02-08T06:02:06.108Z,-5.50
2023-02-08T06:04:39.343Z,-5.60
2023-02-08T06:07:12.357Z,-5.60
2023-02-08T06:09:47.569Z,-5.60
2023-02-08T06:12:22.833Z,-5.50
2023-02-08T06:14:55.893Z,-5.50
2023-02-08T06:17:28.963Z,-5.40
2023-02-08T06:20:02.039Z,-5.30
2023-02-08T06:22:36.017Z,-5.30
2023-02-08T06:25:09.407Z,-5.20
2023-02-08T06:27:43.853Z,-5.30
2023-02-08T06:30:17.738Z,-5.20
2023-02-08T06:32:50.799Z,-5.30
2023-02-08T06:35:23.979Z,-5.30
2023-02-08T06:37:57.101Z,-5.30
2023-02-08T06:40:30.280Z,-5.40
2023-02-08T06:43:04.737Z,-5.30
2023-02-08T06:45:37.834Z,-5.40
2023-02-08T06:48:10.910Z,-5.30
2023-02-08T06:50:44.312Z,-5.30
2023-02-08T06:53:17.495Z,-5.20
2023-02-08T06:55:51.404Z,-5.20
2023-02-08T06:58:26.075Z,-5.00
2023-02-08T07:00:59.260Z,-5.00
2023-02-08T07:03:32.376Z,-4.90
2023-02-08T07:06:06.010Z,-4.80
2023-02-08T07:08:39.359Z,-4.70
2023-02-08T07:11:15.263Z,-4.60
2023-02-08T07:13:51.205Z,-4.60
2023-02-08T07:16:24.469Z,-4.40
2023-02-08T07:18:57.581Z,-4.20
2023-02-08T07:21:30.715Z,-4.00
2023-02-08T07:24:03.826Z,-3.90
2023-02-08T07:26:37.079Z,-3.70
2023-02-08T07:29:11.688Z,-3.50
2023-02-08T07:31:44.741Z,-3.40
2023-02-08T07:34:21.893Z,-3.30
2023-02-08T07:36:55.224Z,-3.20
2023-02-08T07:39:28.662Z,-3.10
2023-02-08T07:42:01.975Z,-2.90
2023-02-08T07:44:38.193Z,-2.70
2023-02-08T07:47:11.303Z,-2.60
2023-02-08T07:49:44.395Z,-2.40
2023-02-08T07:52:17.362Z,-2.20
2023-02-08T07:54:50.384Z,-2.10
2023-02-08T07:57:23.538Z,-2.10
2023-02-08T07:59:58.074Z,-2.10
2023-02-08T08:02:31.182Z,-1.90
2023-02-08T08:05:04.507Z,-2.00
2023-02-08T08:07:38.391Z,-1.90
2023-02-08T08:10:11.580Z,-1.90
2023-02-08T08:12:44.668Z,-1.60
2023-02-08T08:15:19.357Z,-1.50
2023-02-08T08:17:52.490Z,-1.50
2023-02-08T08:20:25.726Z,-1.40
2023-02-08T08:22:58.793Z,-1.40
2023-02-08T08:25:32.234Z,-1.20
2023-02-08T08:28:06.433Z,-1.00
2023-02-08T08:30:44.705Z,-1.10
2023-02-08T08:33:17.940Z,-1.10
2023-02-08T08:35:50.982Z,-1.00
2023-02-08T08:38:24.242Z,-0.90
2023-02-08T08:40:57.323Z,-0.70
2023-02-08T08:43:30.459Z,-0.60
2023-02-08T08:46:07.135Z,-0.50
2023-02-08T08:48:40.210Z,-0.30
2023-02-08T08:51:14.148Z,-0.20
2023-02-08T08:53:47.316Z,-0.20
2023-02-08T08:56:20.421Z,-0.10
2023-02-08T08:58:53.427Z,0.00
2023-02-08T09:01:27.849Z,0.30
2023-02-08T09:04:01.008Z,0.40
2023-02-08T09:06:35.294Z,0.50
2023-02-08T09:09:09.170Z,0.40
2023-02-08T09:11:42.273Z,0.50
2023-02-08T09:14:16.451Z,0.60
2023-02-08T09:16:51.021Z,0.70
2023-02-08T09:19:24.147Z,1.00
2023-02-08T09:21:57.981Z,1.00
2023-02-08T09:24:31.029Z,1.30
2023-02-08T09:27:04.783Z,1.50
2023-02-08T09:29:37.889Z,1.50
2023-02-08T09:32:12.437Z,1.50
2023-02-08T09:34:45.484Z,1.50
2023-02-08T09:37:18.510Z,1.70
2023-02-08T09:39:51.608Z,2.00
2023-02-08T09:42:40.182Z,1.70
2023-02-08T09:45:36.799Z,1.70
2023-02-08T09:48:21.837Z,1.90
2023-02-08T09:50:58.888Z,2.20
2023-02-08T09:53:36.328Z,2.00
2023-02-08T09:56:16.525Z,1.90
2023-02-08T09:58:53.290Z,2.00
2023-02-08T10:01:29.295Z,2.30
2023-02-08T10:04:12.941Z,2.00
2023-02-08T10:06:46.403Z,2.30
2023-02-08T10:09:26.276Z,2.50
2023-02-08T10:12:14.465Z,2.40
2023-02-08T10:15:07.382Z,2.70
2023-02-08T10:17:58.146Z,2.70
2023-02-08T10:20:47.461Z,2.90
2023-02-08T10:23:45.152Z,3.00
2023-02-08T10:26:27.466Z,2.90
2023-02-08T10:29:41.198Z,2.90
2023-02-08T10:32:35.552Z,3.10
2023-02-08T10:35:14.286Z,2.70
2023-02-08T10:37:49.093Z,2.60
2023-02-08T10:40:32.622Z,2.90
2023-02-08T10:43:17.357Z,2.90
2023-02-08T10:45:57.895Z,3.00
2023-02-08T10:48:45.608Z,3.20
2023-02-08T10:51:23.961Z,3.20
2023-02-08T10:53:59.184Z,3.20
2023-02-08T10:56:44.553Z,3.00
2023-02-08T10:59:23.380Z,3.30
2023-02-08T11:01:58.705Z,3.30
2023-02-08T11:04:31.798Z,3.30
2023-02-08T11:07:22.154Z,3.40
2023-02-08T11:10:15.119Z,3.40
2023-02-08T11:12:58.258Z,3.30
2023-02-08T11:15:39.827Z,3.40
2023-02-08T11:18:23.392Z,3.60
2023-02-08T11:21:00.382Z,3.60
2023-02-08T11:23:36.141Z,3.60
2023-02-08T11:26:24.425Z,3.40
2023-02-08T11:29:03.680Z,3.50
2023-02-08T11:31:37.072Z,3.60
2023-02-08T11:34:12.619Z,3.60
2023-02-08T11:36:48.161Z,3.70
2023-02-08T11:39:26.579Z,3.60
2023-02-08T11:42:03.318Z,3.70
2023-02-08T11:44:44.656Z,3.80
2023-02-08T11:47:21.545Z,3.80
2023-02-08T11:49:57.993Z,3.60
2023-02-08T11:52:36.659Z,3.80
2023-02-08T11:55:21.040Z,3.80
2023-02-08T11:57:59.860Z,3.90
2023-02-08T12:00:36.299Z,3.80
2023-02-08T12:03:18.317Z,3.80
2023-02-08T12:06:03.003Z,3.70
2023-02-08T12:08:45.458Z,3.70
2023-02-08T12:11:27.818Z,4.00
2023-02-08T12:14:27.181Z,3.90
2023-02-08T12:17:26.709Z,3.80
2023-02-08T12:20:44.310Z,3.90
2023-02-08T12:23:50.136Z,4.00
2023-02-08T12:26:50.861Z,3.90
2023-02-08T12:29:47.793Z,3.80
2023-02-08T12:32:51.311Z,3.70
2023-02-08T12:36:02.844Z,3.60
2023-02-08T12:39:20.242Z,3.50
2023-02-08T12:42:16.979Z,3.50
2023-02-08T12:45:36.906Z,3.50
2023-02-08T12:48:31.663Z,3.50
2023-02-08T12:51:13.491Z,3.60
2023-02-08T12:53:51.885Z,3.70
2023-02-08T12:56:31.806Z,3.90
2023-02-08T12:59:13.424Z,3.80
2023-02-08T13:01:52.225Z,3.70
2023-02-08T13:04:33.069Z,3.60
2023-02-08T13:07:15.566Z,3.60
2023-02-08T13:09:55.687Z,3.60
2023-02-08T13:12:33.950Z,3.50
2023-02-08T13:15:28.487Z,3.40
2023-02-08T13:18:13.960Z,3.60
2023-02-08T13:20:51.131Z,3.60
2023-02-08T13:23:28.218Z,3.50
2023-02-08T13:26:07.194Z,3.50
2023-02-08T13:28:42.732Z,3.40
2023-02-08T13:31:21.949Z,3.40
2023-02-08T13:34:04.582Z,3.50
2023-02-08T13:36:41.491Z,3.50
2023-02-08T13:39:34.647Z,3.30
2023-02-08T13:42:20.547Z,3.20
2023-02-08T13:44:56.524Z,3.20
2023-02-08T13:47:33.533Z,3.30
2023-02-08T13:50:45.273Z,3.30
2023-02-08T13:53:20.430Z,3.40
2023-02-08T13:56:00.001Z,3.30
2023-02-08T13:59:06.864Z,3.20
2023-02-08T14:02:26.835Z,3.60
2023-02-08T14:05:46.001Z,3.50
2023-02-08T14:08:25.484Z,3.60
2023-02-08T14:11:13.465Z,3.30
2023-02-08T14:13:51.667Z,3.20
2023-02-08T14:16:30.981Z,3.40
2023-02-08T14:19:07.038Z,3.40
2023-02-08T14:21:46.275Z,3.40
2023-02-08T14:24:23.860Z,3.30
2023-02-08T14:27:09.813Z,3.10
2023-02-08T14:29:43.053Z,3.00
2023-02-08T14:32:24.600Z,3.10
2023-02-08T14:35:05.337Z,3.40
2023-02-08T14:37:40.452Z,3.30
2023-02-08T14:40:50.964Z,3.20
2023-02-08T14:43:34.305Z,3.30
2023-02-08T14:46:45.600Z,3.30
2023-02-08T14:49:20.188Z,3.40
2023-02-08T14:51:58.089Z,3.50
2023-02-08T14:54:38.810Z,3.40
2023-02-08T14:57:27.985Z,3.30
2023-02-08T15:00:06.491Z,3.10
2023-02-08T15:02:45.982Z,3.10
2023-02-08T15:05:24.016Z,3.20
2023-02-08T15:07:59.124Z,3.10
2023-02-08T15:10:40.199Z,3.20
2023-02-08T15:13:21.279Z,3.20
2023-02-08T15:15:57.111Z,3.20
2023-02-08T15:18:33.454Z,2.90
2023-02-08T15:21:16.862Z,2.90
2023-02-08T15:24:01.313Z,2.80
2023-02-08T15:26:36.364Z,2.80
2023-02-08T15:29:30.099Z,2.80
2023-02-08T15:32:15.280Z,2.80
2023-02-08T15:34:55.041Z,2.70
2023-02-08T15:37:32.161Z,2.80
2023-02-08T15:40:05.717Z,2.60
2023-02-08T15:42:45.847Z,2.40
2023-02-08T15:45:30.574Z,2.50
2023-02-08T15:48:04.568Z,2.60
2023-02-08T15:50:38.010Z,2.60
2023-02-08T15:53:16.694Z,2.50
2023-02-08T15:55:54.327Z,2.40
2023-02-08T15:58:34.056Z,2.40
2023-02-08T16:01:10.128Z,2.30
2023-02-08T16:03:48.202Z,2.30
2023-02-08T16:06:27.710Z,2.30
2023-02-08T16:09:04.465Z,2.20
2023-02-08T16:11:38.058Z,2.10
2023-02-08T16:14:18.604Z,2.10
2023-02-08T16:16:54.512Z,1.90
2023-02-08T16:19:29.981Z,1.70
2023-02-08T16:22:26.602Z,1.70
2023-02-08T16:25:24.545Z,1.80
2023-02-08T16:27:57.706Z,1.90
2023-02-08T16:30:32.558Z,1.80
2023-02-08T16:33:10.085Z,1.60
2023-02-08T16:35:43.282Z,1.40
2023-02-08T16:38:22.531Z,1.30
2023-02-08T16:40:59.197Z,1.30
2023-02-08T16:43:33.446Z,1.10
2023-02-08T16:46:25.813Z,1.20
2023-02-08T16:48:59.079Z,1.10
2023-02-08T16:51:34.171Z,1.10
2023-02-08T16:54:08.624Z,1.10
2023-02-08T16:56:44.066Z,1.00
2023-02-08T16:59:18.110Z,0.90
2023-02-08T17:01:52.644Z,0.80
2023-02-08T17:04:27.300Z,0.80
2023-02-08T17:07:01.135Z,0.70
2023-02-08T17:09:34.481Z,0.60
2023-02-08T17:12:21.895Z,0.60
2023-02-08T17:14:55.895Z,0.50
2023-02-08T17:17:30.329Z,0.40
2023-02-08T17:20:03.418Z,0.30
2023-02-08T17:22:36.468Z,0.50
2023-02-08T17:25:09.686Z,0.40
2023-02-08T17:27:42.923Z,0.40
2023-02-08T17:30:23.863Z,0.30
2023-02-08T17:32:58.255Z,0.20
2023-02-08T17:35:33.249Z,0.20
2023-02-08T17:38:07.162Z,0.10
2023-02-08T17:40:40.292Z,0.10
2023-02-08T17:43:14.679Z,0.00
2023-02-08T17:45:48.177Z,0.00
2023-02-08T17:48:22.819Z,-0.10
2023-02-08T17:50:55.913Z,-0.10
2023-02-08T17:53:29.047Z,-0.10
2023-02-08T17:56:02.260Z,-0.20
2023-02-08T17:58:35.709Z,-0.20
2023-02-08T18:01:11.204Z,-0.30
2023-02-08T18:03:46.505Z,-0.40
2023-02-08T18:06:20.607Z,-0.40
2023-02-08T18:08:55.098Z,-0.40
2023-02-08T18:11:28.345Z,-0.50
2023-02-08T18:14:01.414Z,-0.60
2023-02-08T18:16:36.167Z,-0.60
2023-02-08T18:19:11.123Z,-0.70
2023-02-08T18:21:44.662Z,-0.70
2023-02-08T18:24:17.952Z,-0.70
2023-02-08T18:26:51.211Z,-0.80
2023-02-08T18:29:24.693Z,-0.80
2023-02-08T18:31:58.038Z,-0.90
2023-02-08T18:34:33.414Z,-0.90
2023-02-08T18:37:06.817Z,-1.00
2023-02-08T18:39:40.468Z,-1.00
2023-02-08T18:42:13.809Z,-1.00
2023-02-08T18:44:47.232Z,-1.10
2023-02-08T18:47:20.334Z,-1.10
2023-02-08T18:49:57.567Z,-1.10
2023-02-08T18:52:31.752Z,-1.10
2023-02-08T18:55:06.052Z,-1.20
2023-02-08T18:57:40.008Z,-1.20
2023-02-08T19:00:15.047Z,-1.20
2023-02-08T19:02:48.132Z,-1.30
2023-02-08T19:05:22.555Z,-1.40
2023-02-08T19:07:55.611Z,-1.50
2023-02-08T19:10:28.698Z,-1.50
2023-02-08T19:13:01.854Z,-1.50
2023-02-08T19:15:37.053Z,-1.50
2023-02-08T19:18:10.891Z,-1.60
2023-02-08T19:20:45.352Z,-1.50
2023-02-08T19:23:18.430Z,-1.50
2023-02-08T19:25:51.545Z,-1.60
2023-02-08T19:28:24.645Z,-1.60
2023-02-08T19:31:05.415Z,-1.60
2023-02-08T19:33:39.243Z,-1.60
2023-02-08T19:36:17.775Z,-1.70
2023-02-08T19:38:52.724Z,-1.70
2023-02-08T19:41:29.197Z,-1.80
2023-02-08T19:44:04.649Z,-1.90
2023-02-08T19:46:39.029Z,-1.90
2023-02-08T19:49:14.025Z,-2.10
2023-02-08T19:51:48.384Z,-2.10
2023-02-08T19:54:22.085Z,-2.10
2023-02-08T19:56:55.918Z,-2.20
2023-02-08T19:59:33.145Z,-2.20
2023-02-08T20:02:11.446Z,-2.20
2023-02-08T20:04:44.649Z,-2.20
2023-02-08T20:07:19.175Z,-2.30
2023-02-08T20:09:52.280Z,-2.30
2023-02-08T20:12:25.430Z,-2.40
2023-02-08T20:14:58.536Z,-2.50
2023-02-08T20:17:31.572Z,-2.60
2023-02-08T20:20:05.116Z,-2.50
2023-02-08T20:22:39.598Z,-2.50
2023-02-08T20:25:12.709Z,-2.60
2023-02-08T20:27:45.891Z,-2.70
2023-02-08T20:30:19.751Z,-2.80
2023-02-08T20:32:53.194Z,-2.70
2023-02-08T20:35:26.531Z,-2.80
2023-02-08T20:38:00.979Z,-2.80
2023-02-08T20:40:33.955Z,-2.90
2023-02-08T20:43:07.076Z,-2.90
2023-02-08T20:45:42.072Z,-2.90
2023-02-08T20:48:15.261Z,-2.90
2023-02-08T20:50:48.313Z,-2.90
2023-02-08T20:53:23.185Z,-2.90
2023-02-08T20:55:56.208Z,-2.80
2023-02-08T20:58:29.209Z,-2.90
2023-02-08T21:01:02.685Z,-2.90
2023-02-08T21:03:36.216Z,-3.00
2023-02-08T21:06:14.080Z,-3.00
2023-02-08T21:08:51.673Z,-3.10
2023-02-08T21:11:26.919Z,-3.00
2023-02-08T21:14:01.187Z,-3.10
2023-02-08T21:16:34.607Z,-3.10
2023-02-08T21:19:08.002Z,-3.10
2023-02-08T21:21:41.013Z,-3.10
2023-02-08T21:24:15.432Z,-3.10
2023-02-08T21:26:48.750Z,-3.10
2023-02-08T21:29:23.468Z,-3.20
2023-02-08T21:31:57.647Z,-3.10
2023-02-08T21:34:31.032Z,-3.20
2023-02-08T21:37:04.169Z,-3.20
2023-02-08T21:39:38.660Z,-3.30
2023-02-08T21:42:11.800Z,-3.20
2023-02-08T21:44:44.884Z,-3.20
2023-02-08T21:47:18.956Z,-3.20
2023-02-08T21:50:09.494Z,-3.20
2023-02-08T21:53:00.104Z,-3.30
2023-02-08T21:55:34.694Z,-3.20
2023-02-08T21:58:07.983Z,-2.90
2023-02-08T22:00:41.549Z,-2.90
2023-02-08T22:03:14.747Z,-2.90
2023-02-08T22:06:06.014Z,-3.00
2023-02-08T22:08:39.196Z,-3.00
2023-02-08T22:11:15.213Z,-2.90
2023-02-08T22:13:48.313Z,-2.90
2023-02-08T22:16:21.492Z,-3.00
2023-02-08T22:18:54.622Z,-3.10
2023-02-08T22:21:27.781Z,-3.00
2023-02-08T22:24:01.344Z,-2.90
2023-02-08T22:26:35.757Z,-3.00
2023-02-08T22:29:08.813Z,-2.90
2023-02-08T22:31:41.983Z,-2.90
2023-02-08T22:34:15.079Z,-2.90
2023-02-08T22:36:48.180Z,-2.90
2023-02-08T22:39:22.096Z,-3.00
2023-02-08T22:41:56.983Z,-3.10
2023-02-08T22:44:30.208Z,-3.20
2023-02-08T22:47:03.658Z,-3.20
2023-02-08T22:49:37.467Z,-3.30
2023-02-08T22:52:11.452Z,-3.30
2023-02-08T22:54:44.826Z,-3.30
2023-02-08T22:57:20.917Z,-3.40
2023-02-08T22:59:54.109Z,-3.40
2023-02-08T23:02:27.622Z,-3.50
2023-02-08T23:05:00.728Z,-3.60
2023-02-08T23:07:33.943Z,-3.60
2023-02-08T23:10:07.954Z,-3.70
2023-02-08T23:12:42.506Z,-3.80
2023-02-08T23:15:15.846Z,-3.80
2023-02-08T23:17:48.923Z,-3.80
2023-02-08T23:20:22.005Z,-3.80
2023-02-08T23:22:55.105Z,-3.90
2023-02-08T23:25:28.834Z,-3.90
2023-02-08T23:28:03.274Z,-3.90
2023-02-08T23:30:36.687Z,-4.00
2023-02-08T23:33:10.582Z,-4.00
2023-02-08T23:35:46.235Z,-3.90
2023-02-08T23:38:19.612Z,-4.00
2023-02-08T23:40:52.834Z,-4.00
2023-02-08T23:43:27.679Z,-4.00
2023-02-08T23:46:06.672Z,-4.00
2023-02-08T23:48:39.791Z,-4.00
2023-02-08T23:51:12.864Z,-4.00
2023-02-08T23:53:46.595Z,-4.10
2023-02-08T23:56:22.878Z,-4.10
2023-02-08T23:58:59.385Z,-4.20
